createdAt,value
2023-03-20T00:00:29.779Z,33.22
2023-03-20T00:02:56.161Z,33.08
2023-03-20T00:05:22.503Z,33.21
2023-03-20T00:07:48.886Z,33.10
2023-03-20T00:10:15.232Z,33.25
2023-03-20T00:12:41.609Z,33.33
2023-03-20T00:15:07.952Z,33.22
2023-03-20T00:17:34.335Z,33.22
2023-03-20T00:20:00.677Z,33.20
2023-03-20T00:22:28.141Z,33.33
2023-03-20T00:24:54.501Z,33.33
2023-03-20T00:27:20.865Z,33.29
2023-03-20T00:29:47.207Z,33.29
2023-03-20T00:32:13.634Z,33.31
2023-03-20T00:34:39.930Z,33.30
2023-03-20T00:37:06.316Z,33.49
2023-03-20T00:39:32.670Z,33.47
2023-03-20T00:41:59.062Z,33.48
2023-03-20T00:44:25.465Z,33.36
2023-03-20T00:46:51.847Z,33.39
2023-03-20T00:49:18.191Z,33.39
2023-03-20T00:51:44.620Z,33.37
2023-03-20T00:54:10.960Z,33.42
2023-03-20T00:56:37.322Z,33.39
2023-03-20T00:59:03.659Z,33.39
2023-03-20T01:01:30.065Z,33.37
2023-03-20T01:03:56.395Z,33.37
2023-03-20T01:06:22.798Z,33.37
2023-03-20T01:08:49.129Z,33.40
2023-03-20T01:11:15.508Z,33.42
2023-03-20T01:13:41.886Z,33.40
2023-03-20T01:16:08.285Z,33.44
2023-03-20T01:18:34.610Z,33.44
2023-03-20T01:21:01.014Z,33.47
2023-03-20T01:23:27.346Z,33.54
2023-03-20T01:25:53.759Z,33.58
2023-03-20T01:28:20.181Z,33.59
2023-03-20T01:30:46.561Z,33.69
2023-03-20T01:33:12.959Z,33.66
2023-03-20T01:35:39.304Z,33.68
2023-03-20T01:38:05.619Z,33.72
2023-03-20T01:40:32.003Z,33.69
2023-03-20T01:42:58.351Z,33.73
2023-03-20T01:45:24.737Z,33.74
2023-03-20T01:47:51.076Z,33.85
2023-03-20T01:50:17.567Z,33.82
2023-03-20T01:52:43.918Z,33.81
2023-03-20T01:55:10.337Z,33.87
2023-03-20T01:57:36.671Z,33.92
2023-03-20T02:00:03.082Z,33.93
2023-03-20T02:02:29.453Z,33.94
2023-03-20T02:04:55.875Z,33.95
2023-03-20T02:07:22.193Z,33.97
2023-03-20T02:09:48.610Z,34.00
2023-03-20T02:12:14.951Z,34.03
2023-03-20T02:14:41.340Z,34.10
2023-03-20T02:17:07.682Z,34.13
2023-03-20T02:19:34.077Z,34.13
2023-03-20T02:22:00.411Z,34.16
2023-03-20T02:24:26.794Z,34.16
2023-03-20T02:26:53.141Z,34.20
2023-03-20T02:29:19.522Z,34.26
2023-03-20T02:31:45.862Z,34.28
2023-03-20T02:34:12.264Z,34.28
2023-03-20T02:36:38.603Z,34.27
2023-03-20T02:39:04.985Z,34.33
2023-03-20T02:41:31.337Z,34.31
2023-03-20T02:43:57.716Z,34.37
2023-03-20T02:46:25.070Z,34.41
2023-03-20T02:48:50.462Z,34.42
2023-03-20T02:51:16.796Z,34.47
2023-03-20T02:53:43.180Z,34.47
2023-03-20T02:56:09.559Z,34.53
2023-03-20T02:58:36.000Z,34.56
2023-03-20T03:01:02.355Z,34.60
2023-03-20T03:03:28.727Z,34.68
2023-03-20T03:05:55.066Z,34.69
2023-03-20T03:08:21.454Z,34.50
2023-03-20T03:10:47.807Z,34.39
2023-03-20T03:13:14.224Z,34.35
2023-03-20T03:15:40.641Z,34.29
2023-03-20T03:18:06.954Z,34.23
2023-03-20T03:20:33.388Z,34.21
2023-03-20T03:22:59.802Z,34.10
2023-03-20T03:25:26.186Z,34.05
2023-03-20T03:27:52.617Z,34.01
2023-03-20T03:30:19.017Z,33.90
2023-03-20T03:32:45.462Z,33.83
2023-03-20T03:35:11.771Z,33.72
2023-03-20T03:37:38.153Z,33.86
2023-03-20T03:40:04.508Z,33.92
2023-03-20T03:42:30.919Z,34.11
2023-03-20T03:44:57.262Z,34.27
2023-03-20T03:47:23.651Z,34.40
2023-03-20T03:49:51.056Z,34.84
2023-03-20T03:52:17.425Z,35.31
2023-03-20T03:54:43.795Z,35.06
2023-03-20T03:57:10.187Z,35.05
2023-03-20T03:59:36.570Z,35.09
2023-03-20T04:02:02.992Z,35.11
2023-03-20T04:04:29.397Z,34.89
2023-03-20T04:06:55.769Z,34.59
2023-03-20T04:09:22.110Z,34.47
2023-03-20T04:11:48.495Z,34.36
2023-03-20T04:14:14.835Z,34.22
2023-03-20T04:16:41.237Z,34.10
2023-03-20T04:19:07.566Z,34.05
2023-03-20T04:21:33.952Z,33.98
2023-03-20T04:24:00.333Z,33.91
2023-03-20T04:26:26.720Z,33.86
2023-03-20T04:28:53.070Z,33.74
2023-03-20T04:31:19.522Z,33.67
2023-03-20T04:33:45.813Z,33.64
2023-03-20T04:36:12.233Z,33.63
2023-03-20T04:38:38.565Z,33.56
2023-03-20T04:41:06.901Z,33.62
2023-03-20T04:43:31.294Z,33.76
2023-03-20T04:45:57.684Z,34.02
2023-03-20T04:48:24.072Z,34.33
2023-03-20T04:50:50.460Z,34.62
2023-03-20T04:53:16.812Z,35.52
2023-03-20T04:55:43.187Z,38.26
2023-03-20T04:58:09.575Z,35.99
2023-03-20T05:00:35.972Z,35.17
2023-03-20T05:03:02.303Z,35.13
2023-03-20T05:05:28.688Z,35.00
2023-03-20T05:07:55.065Z,35.08
2023-03-20T05:10:21.453Z,35.11
2023-03-20T05:12:47.799Z,34.92
2023-03-20T05:15:14.190Z,34.86
2023-03-20T05:17:40.555Z,34.65
2023-03-20T05:20:06.933Z,34.54
2023-03-20T05:22:33.266Z,34.65
2023-03-20T05:24:59.655Z,34.68
2023-03-20T05:27:26.012Z,34.65
2023-03-20T05:29:52.401Z,34.56
2023-03-20T05:32:18.743Z,34.47
2023-03-20T05:34:45.134Z,34.22
2023-03-20T05:37:11.481Z,34.12
2023-03-20T05:39:37.870Z,34.12
2023-03-20T05:42:04.238Z,34.29
2023-03-20T05:44:30.616Z,34.66
2023-03-20T05:46:56.997Z,34.84
2023-03-20T05:49:23.376Z,34.70
2023-03-20T05:51:49.717Z,34.45
2023-03-20T05:54:16.148Z,34.29
2023-03-20T05:56:42.541Z,34.11
2023-03-20T05:59:08.884Z,34.00
2023-03-20T06:01:35.256Z,34.15
2023-03-20T06:04:01.700Z,34.25
2023-03-20T06:06:27.984Z,34.23
2023-03-20T06:08:54.371Z,34.30
2023-03-20T06:11:20.715Z,34.62
2023-03-20T06:13:47.105Z,35.11
2023-03-20T06:16:13.552Z,35.58
2023-03-20T06:18:39.829Z,35.84
2023-03-20T06:21:06.214Z,35.61
2023-03-20T06:23:32.604Z,35.19
2023-03-20T06:25:58.937Z,35.05
2023-03-20T06:28:25.354Z,34.95
2023-03-20T06:30:51.905Z,35.07
2023-03-20T06:33:18.166Z,35.26
2023-03-20T06:35:44.472Z,35.36
2023-03-20T06:38:10.868Z,35.34
2023-03-20T06:40:37.190Z,35.18
2023-03-20T06:43:03.607Z,35.00
2023-03-20T06:45:29.935Z,34.85
2023-03-20T06:47:56.339Z,34.74
2023-03-20T06:50:22.685Z,34.78
2023-03-20T06:52:49.099Z,35.10
2023-03-20T06:55:15.443Z,35.34
2023-03-20T06:57:41.864Z,35.56
2023-03-20T07:00:08.250Z,35.75
2023-03-20T07:02:34.594Z,35.68
2023-03-20T07:05:00.991Z,35.57
2023-03-20T07:07:27.332Z,35.65
2023-03-20T07:09:53.685Z,35.63
2023-03-20T07:12:20.109Z,35.50
2023-03-20T07:14:46.493Z,35.36
2023-03-20T07:17:12.910Z,35.22
2023-03-20T07:19:39.269Z,35.03
2023-03-20T07:22:05.665Z,34.94
2023-03-20T07:24:32.006Z,34.84
2023-03-20T07:27:00.809Z,34.74
2023-03-20T07:29:27.164Z,34.74
2023-03-20T07:31:53.596Z,34.85
2023-03-20T07:34:19.907Z,35.12
2023-03-20T07:36:46.313Z,35.40
2023-03-20T07:39:12.665Z,35.82
2023-03-20T07:41:39.050Z,36.13
2023-03-20T07:44:05.401Z,36.35
2023-03-20T07:46:31.811Z,36.56
2023-03-20T07:48:58.164Z,36.34
2023-03-20T07:51:24.556Z,36.21
2023-03-20T07:53:50.900Z,36.28
2023-03-20T07:56:17.303Z,36.17
2023-03-20T07:58:43.662Z,36.04
2023-03-20T08:01:10.099Z,35.98
2023-03-20T08:03:36.708Z,35.83
2023-03-20T08:06:02.977Z,35.73
2023-03-20T08:08:29.329Z,35.64
2023-03-20T08:10:55.717Z,35.57
2023-03-20T08:13:22.072Z,35.38
2023-03-20T08:15:48.533Z,35.35
2023-03-20T08:18:14.922Z,35.38
2023-03-20T08:20:41.328Z,35.42
2023-03-20T08:23:07.670Z,35.24
2023-03-20T08:25:34.144Z,35.39
2023-03-20T08:28:00.552Z,35.67
2023-03-20T08:30:27.868Z,35.94
2023-03-20T08:32:54.152Z,36.03
2023-03-20T08:35:32.597Z,36.11
2023-03-20T08:37:46.946Z,35.98
2023-03-20T08:40:13.358Z,35.93
2023-03-20T08:42:39.725Z,35.98
2023-03-20T08:45:06.150Z,36.16
2023-03-20T08:47:32.505Z,36.16
2023-03-20T08:49:58.936Z,36.37
2023-03-20T08:52:25.303Z,36.45
2023-03-20T08:54:51.700Z,36.27
2023-03-20T08:57:18.067Z,36.16
2023-03-20T08:59:44.449Z,36.03
2023-03-20T09:02:10.946Z,35.74
2023-03-20T09:04:37.199Z,35.98
2023-03-20T09:07:03.544Z,36.11
2023-03-20T09:09:29.956Z,36.30
2023-03-20T09:11:56.272Z,36.52
2023-03-20T09:14:22.668Z,36.67
2023-03-20T09:16:49.026Z,36.76
2023-03-20T09:19:15.426Z,36.91
2023-03-20T09:21:41.772Z,37.00
2023-03-20T09:24:08.154Z,36.98
2023-03-20T09:26:34.531Z,36.83
2023-03-20T09:29:00.931Z,36.94
2023-03-20T09:31:27.304Z,37.12
2023-03-20T09:33:53.688Z,37.13
2023-03-20T09:36:20.050Z,36.83
2023-03-20T09:38:46.402Z,36.67
2023-03-20T09:41:12.788Z,36.48
2023-03-20T09:43:39.176Z,36.36
2023-03-20T09:46:05.598Z,36.19
2023-03-20T09:48:31.942Z,36.11
2023-03-20T09:50:58.354Z,35.94
2023-03-20T09:53:24.735Z,35.90
2023-03-20T09:55:51.136Z,36.76
2023-03-20T09:58:17.500Z,36.76
2023-03-20T10:00:43.861Z,36.69
2023-03-20T10:03:11.530Z,37.03
2023-03-20T10:05:38.210Z,37.41
2023-03-20T10:08:04.337Z,37.86
2023-03-20T10:10:30.657Z,37.86
2023-03-20T10:12:57.051Z,37.76
2023-03-20T10:15:23.400Z,37.77
2023-03-20T10:17:49.776Z,37.71
2023-03-20T10:20:16.154Z,37.50
2023-03-20T10:22:42.520Z,37.13
2023-03-20T10:25:08.937Z,36.88
2023-03-20T10:27:35.269Z,36.83
2023-03-20T10:30:01.677Z,36.70
2023-03-20T10:32:28.027Z,36.63
2023-03-20T10:34:54.563Z,36.62
2023-03-20T10:37:20.909Z,36.78
2023-03-20T10:39:47.398Z,36.74
2023-03-20T10:42:13.762Z,36.51
2023-03-20T10:44:43.114Z,36.00
2023-03-20T10:47:09.557Z,36.00
2023-03-20T10:49:35.866Z,36.04
2023-03-20T10:52:02.236Z,36.04
2023-03-20T10:54:28.642Z,36.15
2023-03-20T10:56:54.972Z,36.15
2023-03-20T10:59:21.361Z,36.37
2023-03-20T11:01:47.701Z,36.37
2023-03-20T11:04:14.137Z,36.96
2023-03-20T11:06:40.435Z,37.18
2023-03-20T11:09:06.883Z,37.34
2023-03-20T11:11:33.234Z,37.16
2023-03-20T11:13:59.617Z,37.46
2023-03-20T11:16:26.058Z,37.59
2023-03-20T11:18:52.387Z,37.69
2023-03-20T11:21:18.742Z,37.51
2023-03-20T11:23:45.122Z,37.40
2023-03-20T11:26:11.496Z,37.42
2023-03-20T11:28:37.892Z,36.71
2023-03-20T11:31:05.396Z,36.71
2023-03-20T11:33:30.613Z,36.87
2023-03-20T11:35:57.013Z,36.64
2023-03-20T11:38:23.370Z,36.53
2023-03-20T11:40:49.713Z,36.45
2023-03-20T11:43:16.129Z,36.01
2023-03-20T11:45:42.520Z,36.01
2023-03-20T11:48:08.848Z,36.08
2023-03-20T11:50:35.629Z,36.07
2023-03-20T11:53:01.574Z,36.08
2023-03-20T11:55:27.922Z,35.58
2023-03-20T11:57:54.306Z,35.58
2023-03-20T12:00:20.665Z,36.13
2023-03-20T12:02:47.136Z,36.19
2023-03-20T12:05:15.725Z,36.40
2023-03-20T12:07:39.850Z,36.47
2023-03-20T12:10:06.180Z,36.50
2023-03-20T12:12:32.627Z,36.75
2023-03-20T12:14:58.966Z,36.70
2023-03-20T12:17:25.375Z,36.70
2023-03-20T12:19:51.728Z,36.76
2023-03-20T12:22:18.134Z,36.76
2023-03-20T12:24:44.489Z,36.97
2023-03-20T12:27:10.988Z,37.34
2023-03-20T12:29:37.397Z,37.34
2023-03-20T12:32:03.792Z,37.30
2023-03-20T12:34:30.190Z,37.25
2023-03-20T12:36:56.573Z,37.20
2023-03-20T12:39:22.937Z,37.21
2023-03-20T12:41:49.335Z,37.31
2023-03-20T12:44:15.691Z,37.24
2023-03-20T12:46:42.095Z,37.36
2023-03-20T12:49:08.423Z,37.37
2023-03-20T12:51:34.861Z,37.37
2023-03-20T12:54:01.203Z,36.98
2023-03-20T12:56:27.649Z,36.97
2023-03-20T12:58:54.019Z,36.72
2023-03-20T13:01:20.436Z,36.62
2023-03-20T13:03:46.859Z,36.52
2023-03-20T13:06:13.292Z,36.68
2023-03-20T13:08:39.619Z,36.92
2023-03-20T13:11:06.004Z,36.86
2023-03-20T13:13:32.357Z,36.87
2023-03-20T13:15:59.295Z,37.07
2023-03-20T13:18:25.132Z,37.36
2023-03-20T13:20:51.502Z,37.20
2023-03-20T13:23:17.856Z,37.46
2023-03-20T13:25:44.252Z,37.06
2023-03-20T13:28:10.590Z,36.92
2023-03-20T13:30:37.229Z,36.97
2023-03-20T13:33:03.389Z,36.87
2023-03-20T13:35:29.831Z,36.52
2023-03-20T13:37:56.210Z,36.34
2023-03-20T13:40:22.616Z,36.37
2023-03-20T13:42:49.079Z,36.37
2023-03-20T13:45:15.461Z,36.28
2023-03-20T13:47:41.829Z,36.44
2023-03-20T13:50:08.266Z,36.17
2023-03-20T13:52:34.584Z,36.07
2023-03-20T13:55:00.978Z,36.18
2023-03-20T13:57:27.341Z,36.32
2023-03-20T13:59:53.730Z,36.48
2023-03-20T14:02:20.080Z,36.50
2023-03-20T14:04:46.483Z,36.60
2023-03-20T14:07:12.824Z,36.60
2023-03-20T14:09:39.221Z,36.50
2023-03-20T14:12:05.561Z,36.33
2023-03-20T14:14:31.973Z,36.53
2023-03-20T14:16:58.332Z,36.50
2023-03-20T14:19:24.749Z,36.49
2023-03-20T14:21:51.088Z,36.41
2023-03-20T14:24:17.502Z,36.11
2023-03-20T14:26:43.853Z,35.93
2023-03-20T14:29:10.261Z,35.78
2023-03-20T14:31:38.070Z,35.90
2023-03-20T14:34:04.781Z,35.69
2023-03-20T14:36:31.086Z,35.99
2023-03-20T14:38:57.466Z,35.98
2023-03-20T14:41:23.854Z,36.19
2023-03-20T14:43:50.225Z,36.27
2023-03-20T14:46:16.564Z,36.65
2023-03-20T14:48:42.954Z,36.66
2023-03-20T14:51:09.299Z,36.82
2023-03-20T14:53:35.691Z,36.93
2023-03-20T14:56:02.046Z,37.10
2023-03-20T14:58:28.455Z,36.84
2023-03-20T15:00:54.833Z,36.99
2023-03-20T15:03:21.204Z,36.47
2023-03-20T15:05:47.558Z,36.87
2023-03-20T15:08:13.935Z,36.87
2023-03-20T15:10:40.287Z,36.46
2023-03-20T15:13:06.674Z,36.12
2023-03-20T15:15:33.023Z,36.12
2023-03-20T15:17:59.409Z,36.23
2023-03-20T15:20:25.782Z,36.11
2023-03-20T15:22:52.138Z,35.93
2023-03-20T15:25:18.721Z,35.86
2023-03-20T15:27:45.126Z,35.89
2023-03-20T15:30:11.471Z,36.03
2023-03-20T15:32:37.877Z,36.05
2023-03-20T15:35:04.206Z,35.87
2023-03-20T15:37:30.590Z,35.87
2023-03-20T15:39:56.950Z,36.11
2023-03-20T15:42:23.329Z,36.32
2023-03-20T15:44:49.701Z,36.32
2023-03-20T15:47:16.046Z,36.42
2023-03-20T15:49:42.407Z,36.52
2023-03-20T15:52:08.843Z,36.76
2023-03-20T15:54:35.187Z,36.84
2023-03-20T15:57:01.584Z,36.84
2023-03-20T15:59:27.925Z,36.55
2023-03-20T16:01:54.355Z,36.59
2023-03-20T16:04:20.692Z,36.40
2023-03-20T16:06:47.089Z,36.40
2023-03-20T16:09:13.418Z,36.52
2023-03-20T16:11:39.834Z,36.31
2023-03-20T16:14:06.152Z,36.31
2023-03-20T16:16:32.581Z,36.03
2023-03-20T16:18:59.430Z,35.99
2023-03-20T16:21:25.293Z,35.87
2023-03-20T16:23:51.641Z,35.77
2023-03-20T16:26:18.045Z,35.73
2023-03-20T16:28:44.388Z,35.73
2023-03-20T16:31:10.876Z,35.52
2023-03-20T16:33:37.134Z,35.48
2023-03-20T16:36:03.653Z,35.48
2023-03-20T16:38:29.867Z,35.10
2023-03-20T16:40:56.289Z,35.10
2023-03-20T16:43:22.633Z,35.30
2023-03-20T16:45:49.048Z,35.30
2023-03-20T16:48:15.394Z,35.59
2023-03-20T16:50:41.807Z,35.75
2023-03-20T16:53:08.157Z,35.71
2023-03-20T16:55:34.541Z,35.74
2023-03-20T16:58:00.922Z,35.75
2023-03-20T17:00:27.350Z,35.94
2023-03-20T17:02:53.644Z,36.00
2023-03-20T17:05:20.056Z,35.96
2023-03-20T17:07:46.396Z,35.80
2023-03-20T17:10:12.788Z,35.74
2023-03-20T17:12:39.124Z,35.52
2023-03-20T17:15:05.532Z,35.48
2023-03-20T17:17:31.866Z,35.49
2023-03-20T17:19:58.248Z,35.29
2023-03-20T17:22:24.627Z,35.18
2023-03-20T17:24:50.999Z,35.25
2023-03-20T17:27:17.344Z,35.20
2023-03-20T17:29:43.722Z,35.07
2023-03-20T17:32:10.094Z,35.00
2023-03-20T17:34:36.434Z,35.00
2023-03-20T17:37:02.770Z,35.63
2023-03-20T17:42:09.478Z,35.30
2023-03-20T17:44:35.811Z,35.30
2023-03-20T17:47:02.220Z,35.57
2023-03-20T17:49:28.575Z,35.67
2023-03-20T17:51:54.937Z,35.67
2023-03-20T17:54:21.489Z,35.61
2023-03-20T17:56:47.654Z,35.53
2023-03-20T17:59:14.000Z,35.36
2023-03-20T18:01:40.452Z,34.86
2023-03-20T18:04:06.803Z,35.07
2023-03-20T18:06:33.169Z,35.25
2023-03-20T18:08:59.525Z,35.16
2023-03-20T18:11:25.896Z,35.14
2023-03-20T18:13:52.292Z,35.22
2023-03-20T18:16:18.736Z,35.31
2023-03-20T18:18:45.003Z,35.01
2023-03-20T18:21:11.388Z,35.01
2023-03-20T18:23:37.720Z,35.17
2023-03-20T18:26:04.110Z,35.25
2023-03-20T18:28:30.441Z,35.56
2023-03-20T18:30:56.848Z,35.25
2023-03-20T18:33:23.204Z,35.86
2023-03-20T18:35:49.698Z,35.58
2023-03-20T18:38:15.986Z,35.63
2023-03-20T18:40:42.375Z,35.63
2023-03-20T18:43:08.698Z,35.45
2023-03-20T18:45:35.115Z,35.17
2023-03-20T18:48:01.450Z,35.17
2023-03-20T18:50:29.047Z,35.17
2023-03-20T18:52:54.179Z,35.07
2023-03-20T18:55:20.564Z,34.95
2023-03-20T18:57:48.117Z,35.06
2023-03-20T19:00:13.288Z,35.06
2023-03-20T19:02:39.617Z,35.70
2023-03-20T19:05:06.013Z,35.70
2023-03-20T19:07:32.334Z,35.40
2023-03-20T19:09:58.712Z,35.40
2023-03-20T19:12:25.053Z,35.41
2023-03-20T19:14:51.425Z,35.46
2023-03-20T19:17:17.759Z,35.47
2023-03-20T19:19:45.809Z,35.48
2023-03-20T19:22:22.587Z,35.60
2023-03-20T19:24:36.877Z,35.53
2023-03-20T19:27:03.213Z,35.63
2023-03-20T19:29:29.700Z,35.74
2023-03-20T19:31:56.045Z,35.72
2023-03-20T19:35:00.969Z,35.90
2023-03-20T19:36:48.864Z,35.74
2023-03-20T19:39:15.134Z,35.61
2023-03-20T19:41:41.462Z,36.09
2023-03-20T19:44:07.844Z,36.09
2023-03-20T19:46:42.216Z,35.95
2023-03-20T19:49:00.611Z,35.95
2023-03-20T19:51:26.928Z,35.84
2023-03-20T19:53:53.301Z,36.16
2023-03-20T19:56:19.665Z,35.91
2023-03-20T19:58:46.055Z,35.91
2023-03-20T20:01:15.217Z,36.11
2023-03-20T20:03:38.786Z,36.14
2023-03-20T20:06:05.119Z,36.17
2023-03-20T20:08:46.551Z,36.13
2023-03-20T20:10:57.838Z,36.15
2023-03-20T20:13:25.013Z,36.22
2023-03-20T20:15:50.556Z,36.18
2023-03-20T20:18:16.943Z,36.23
2023-03-20T20:21:22.208Z,36.29
2023-03-20T20:23:09.680Z,36.24
2023-03-20T20:25:36.007Z,36.38
2023-03-20T20:28:02.418Z,36.38
2023-03-20T20:30:28.749Z,36.24
2023-03-20T20:33:02.970Z,36.24
2023-03-20T20:35:44.580Z,36.32
2023-03-20T20:40:33.066Z,36.35
2023-03-20T20:43:01.887Z,36.35
2023-03-20T20:45:25.796Z,36.39
2023-03-20T20:47:52.194Z,36.50
2023-03-20T20:50:18.529Z,36.39
2023-03-20T20:52:44.875Z,36.43
2023-03-20T20:55:23.643Z,36.49
2023-03-20T20:57:37.689Z,36.49
2023-03-20T21:00:04.083Z,36.53
2023-03-20T21:02:30.465Z,36.58
2023-03-20T21:04:56.810Z,36.58
2023-03-20T21:07:23.142Z,36.61
2023-03-20T21:09:49.528Z,36.64
2023-03-20T21:12:32.375Z,36.63
2023-03-20T21:14:42.274Z,36.77
2023-03-20T21:17:08.607Z,36.76
2023-03-20T21:19:35.020Z,36.76
2023-03-20T21:22:01.375Z,36.82
2023-03-20T21:24:33.097Z,36.94
2023-03-20T21:26:54.080Z,36.87
2023-03-20T21:29:20.468Z,36.92
2023-03-20T21:31:46.945Z,36.92
2023-03-20T21:34:13.177Z,36.93
2023-03-20T21:36:39.570Z,36.96
2023-03-20T21:39:08.671Z,36.99
2023-03-20T21:41:32.271Z,36.97
2023-03-20T21:44:01.273Z,36.75
2023-03-20T21:46:59.995Z,36.75
2023-03-20T21:52:23.925Z,36.78
2023-03-20T21:54:45.984Z,36.98
2023-03-20T21:56:48.849Z,36.99
2023-03-20T21:59:20.780Z,36.98
2023-03-20T22:04:02.901Z,37.04
2023-03-20T22:06:37.266Z,37.01
2023-03-20T22:09:34.051Z,37.00
2023-03-20T22:11:38.439Z,37.12
2023-03-20T22:14:20.036Z,37.12
2023-03-20T22:19:00.066Z,37.13
2023-03-20T22:21:16.025Z,37.19
2023-03-20T22:33:49.476Z,37.08
2023-03-20T22:38:41.633Z,37.35
2023-03-20T22:40:45.629Z,37.38
2023-03-20T22:45:02.037Z,37.35
2023-03-20T22:47:24.047Z,37.22
2023-03-20T22:49:50.389Z,37.22
2023-03-20T22:52:29.062Z,36.88
2023-03-20T22:54:43.145Z,37.27
2023-03-20T22:57:09.526Z,37.27
2023-03-20T22:59:35.862Z,37.48
2023-03-20T23:02:02.255Z,37.43
2023-03-20T23:04:30.110Z,37.43
2023-03-20T23:06:55.007Z,37.21
2023-03-20T23:09:21.347Z,37.35
2023-03-20T23:11:47.738Z,37.35
2023-03-20T23:14:21.351Z,37.50
2023-03-20T23:16:40.494Z,37.54
2023-03-20T23:19:06.848Z,37.69
2023-03-20T23:21:33.233Z,37.69
2023-03-20T23:23:59.562Z,37.40
2023-03-20T23:26:25.935Z,37.40
2023-03-20T23:28:52.273Z,37.80
2023-03-20T23:31:18.721Z,37.60
2023-03-20T23:33:44.997Z,37.67
2023-03-20T23:36:24.742Z,37.67
2023-03-20T23:38:37.730Z,37.43
2023-03-20T23:41:04.145Z,37.43
2023-03-20T23:43:30.492Z,37.63
2023-03-20T23:45:56.969Z,37.65
2023-03-20T23:48:23.388Z,37.66
2023-03-20T23:50:53.316Z,37.55
2023-03-20T23:53:20.587Z,37.55
2023-03-20T23:55:42.416Z,37.69
2023-03-20T23:58:08.794Z,37.71
